Ilyas Efendiyev — 9HES8 — position and weather

sailwx.info

Track history (hours):
 
Tides and Currents Weather Stations Pressure Air Temp Water Temp Dewpoint Dewpoint Depression Visibility Wind Speed Wind Dir Waves Ship Positions

Ilyas Efendiyev

Last reported at 2014-Sep-21 21:32 UTC. Time now 2014-Sep-22 08:10 UTC.
Position N 36°48' E 023°33'.

Length 140 m; draft 4.6 m.

Type: Cargo ship. MMSI: 215901000.

Date/timePositionNaut miles runAvg speedWind from/ knotsBaromVisibWave heightAir tempDewpointWater temp
2014-Sep-21 21:32N 36°48' E 023°33'8 8.3
2014-Sep-21 20:34N 36°55' E 023°38'6 5.7
2014-Sep-21 19:33N 36°60' E 023°41'6 5.6
2014-Sep-21 18:33N 37°05' E 023°45'336 7.0
2014-Sep-19 18:32N 40°59' E 028°55'0 0.0
2014-Sep-19 17:03N 40°59' E 028°56'0 0.0
2014-Sep-19 16:22N 40°59' E 028°56'0 0.0
2014-Sep-19 15:29N 40°59' E 028°56'0 0.1
2014-Sep-19 14:33N 40°59' E 028°56'0 0.0
2014-Sep-19 13:27N 40°59' E 028°56'0 0.1
2014-Sep-19 12:33N 40°59' E 028°56'0 0.0
2014-Sep-19 11:33N 40°59' E 028°56'0 0.0
2014-Sep-19 10:31N 40°59' E 028°56'0 0.0
2014-Sep-19 08:18N 40°59' E 028°55'0 0.0
2014-Sep-19 07:22N 40°59' E 028°55'0 0.0
2014-Sep-19 05:31N 40°59' E 028°55'0 0.0
2014-Sep-19 04:22N 40°59' E 028°56'0 0.0
2014-Sep-19 03:25N 40°59' E 028°56'0 0.1
2014-Sep-19 02:33N 40°59' E 028°56'0 0.0
2014-Sep-19 01:33N 40°59' E 028°56'0 0.0
2014-Sep-19 00:33N 40°59' E 028°56'0 0.0
2014-Sep-18 20:33N 40°59' E 028°56'0 0.0
2014-Sep-18 19:33N 40°59' E 028°56'0 0.0
2014-Sep-18 18:33N 40°59' E 028°56'0 0.0
2014-Sep-18 17:32N 40°59' E 028°56'0 0.0
2014-Sep-18 16:29N 40°59' E 028°56'0 0.1
2014-Sep-18 15:31N 40°59' E 028°56'0 0.0
2014-Sep-18 14:08N 40°59' E 028°56'0 0.0
2014-Sep-18 13:32N 40°59' E 028°56'0 0.0
2014-Sep-18 12:30N 40°59' E 028°56'  
2014-Sep-15 22:32N 46°36' E 031°39'8 8.1
2014-Sep-15 21:30N 46°37' E 031°51'7 7.2
2014-Sep-15 20:34N 46°42' E 031°56'7 7.0
2014-Sep-15 19:33N 46°49' E 031°54'8 8.0
2014-Sep-15 18:33N 46°56' E 032°01'3 2.9
2014-Sep-15 17:32N 46°56' E 031°57'0 0.0
2014-Sep-15 16:31N 46°56' E 031°57'0 0.0
2014-Sep-15 15:32N 46°56' E 031°57'0 0.0
2014-Sep-15 14:27N 46°56' E 031°57'0 0.0
2014-Sep-15 13:31N 46°56' E 031°57'0 0.0
2014-Sep-15 12:31N 46°56' E 031°57'0 0.0
2014-Sep-15 11:32N 46°56' E 031°57'0 0.0
2014-Sep-15 10:27N 46°56' E 031°57'0 0.0
2014-Sep-15 09:33N 46°56' E 031°57'0 0.0
2014-Sep-15 08:33N 46°56' E 031°57'0 0.0
2014-Sep-15 07:33N 46°56' E 031°57'0 0.0
2014-Sep-15 06:33N 46°56' E 031°57'0 0.0
2014-Sep-15 05:31N 46°56' E 031°57'0 0.0
2014-Sep-15 04:32N 46°56' E 031°57'0 0.0
2014-Sep-15 03:32N 46°56' E 031°57'0 0.0
2014-Sep-15 02:31N 46°56' E 031°57'0 0.0
2014-Sep-15 01:33N 46°56' E 031°57'0 0.0
2014-Sep-15 00:33N 46°56' E 031°57'0 0.0
2014-Sep-14 23:31N 46°56' E 031°57'0 0.0
2014-Sep-14 22:31N 46°56' E 031°57'0 0.0
2014-Sep-14 21:32N 46°56' E 031°57'0 0.0
2014-Sep-14 20:32N 46°56' E 031°57'0 0.0
2014-Sep-14 19:32N 46°56' E 031°57'0 0.0
2014-Sep-14 18:31N 46°56' E 031°57'0 0.0
2014-Sep-14 17:33N 46°56' E 031°57'0 0.0
2014-Sep-14 16:30N 46°56' E 031°57'0 0.0
2014-Sep-14 15:33N 46°56' E 031°57'0 0.0
2014-Sep-14 14:33N 46°56' E 031°57'0 0.0
2014-Sep-14 13:33N 46°56' E 031°57'0 0.0
2014-Sep-14 12:33N 46°56' E 031°57'0 0.0
2014-Sep-14 11:33N 46°56' E 031°57'0 0.0
2014-Sep-14 10:33N 46°56' E 031°57'0 0.0
2014-Sep-14 09:32N 46°56' E 031°57'0 0.0
2014-Sep-14 08:31N 46°56' E 031°57'0 0.0
2014-Sep-14 07:32N 46°56' E 031°57'0 0.0
2014-Sep-14 06:33N 46°56' E 031°57'0 0.0
2014-Sep-14 05:33N 46°56' E 031°57'0 0.0
2014-Sep-14 04:31N 46°56' E 031°57'0 0.0
2014-Sep-14 03:31N 46°56' E 031°57'0 0.0
2014-Sep-14 02:33N 46°56' E 031°57'0 0.0
2014-Sep-14 01:33N 46°56' E 031°57'0 0.0
2014-Sep-13 21:33N 46°56' E 031°57'0 0.0
2014-Sep-13 20:31N 46°56' E 031°57'0 0.0
2014-Sep-13 19:31N 46°56' E 031°57'0 0.0
2014-Sep-13 18:32N 46°56' E 031°57'0 0.0
2014-Sep-13 17:32N 46°56' E 031°57'0 0.0
2014-Sep-13 16:28N 46°56' E 031°57'0 0.0
2014-Sep-13 15:32N 46°56' E 031°57'0 0.0
2014-Sep-13 14:32N 46°56' E 031°57'0 0.0
2014-Sep-13 13:33N 46°56' E 031°57'0 0.0
2014-Sep-13 12:29N 46°56' E 031°57'0 0.0
2014-Sep-13 11:33N 46°56' E 031°57'0 0.0
2014-Sep-13 10:32N 46°56' E 031°57'0 0.0
2014-Sep-13 09:31N 46°56' E 031°57'0 0.0
2014-Sep-13 08:32N 46°56' E 031°57'0 0.0
2014-Sep-13 07:33N 46°56' E 031°57'0 0.0
2014-Sep-13 06:31N 46°56' E 031°57'0 0.0
2014-Sep-13 05:31N 46°56' E 031°57'0 0.0
2014-Sep-13 04:33N 46°56' E 031°57'0 0.0
2014-Sep-13 03:31N 46°56' E 031°57'0 0.0
2014-Sep-13 02:28N 46°56' E 031°57'0 0.0
2014-Sep-13 01:33N 46°56' E 031°57'0 0.0
2014-Sep-13 00:31N 46°56' E 031°57'0 0.0
2014-Sep-12 23:31N 46°56' E 031°57'0 0.0
2014-Sep-12 22:31N 46°56' E 031°57'0 0.0
2014-Sep-12 21:31N 46°56' E 031°57'0 0.0
2014-Sep-12 20:31N 46°56' E 031°57'0 0.0
2014-Sep-12 19:32N 46°56' E 031°57'0 0.0
2014-Sep-12 18:31N 46°56' E 031°57'0 0.0
2014-Sep-12 17:31N 46°56' E 031°57'0 0.0
2014-Sep-12 16:32N 46°56' E 031°57'0 0.0
2014-Sep-12 15:32N 46°56' E 031°57'0 0.0
2014-Sep-12 14:25N 46°56' E 031°57'0 0.0
2014-Sep-12 13:32N 46°56' E 031°57'0 0.0
2014-Sep-12 12:32N 46°56' E 031°57'0 0.0
2014-Sep-12 11:31N 46°56' E 031°57'1 0.8
2014-Sep-12 10:34N 46°56' E 031°57'4 3.8
2014-Sep-12 09:33N 46°52' E 031°58'8 7.7
2014-Sep-12 08:33N 46°45' E 031°54'7 7.2
2014-Sep-12 07:33N 46°37' E 031°53'  
Track history (hours):
 
Tides and Currents Weather Stations Pressure Air Temp Water Temp Dewpoint Dewpoint Depression Visibility Wind Speed Wind Dir Waves Ship Positions

Ilyas Efendiyev

Last reported at 2014-Sep-21 21:32 UTC. Time now 2014-Sep-22 08:10 UTC.
Position N 36°48' E 023°33'.

Length 140 m; draft 4.6 m.

Type: Cargo ship. MMSI: 215901000.

Date/timePositionNaut miles runAvg speedWind from/ knotsBaromVisibWave heightAir tempDewpointWater temp
2014-Sep-21 21:32N 36°48' E 023°33'8 8.3
2014-Sep-21 20:34N 36°55' E 023°38'6 5.7
2014-Sep-21 19:33N 36°60' E 023°41'6 5.6
2014-Sep-21 18:33N 37°05' E 023°45'336 7.0
2014-Sep-19 18:32N 40°59' E 028°55'0 0.0
2014-Sep-19 17:03N 40°59' E 028°56'0 0.0
2014-Sep-19 16:22N 40°59' E 028°56'0 0.0
2014-Sep-19 15:29N 40°59' E 028°56'0 0.1
2014-Sep-19 14:33N 40°59' E 028°56'0 0.0
2014-Sep-19 13:27N 40°59' E 028°56'0 0.1
2014-Sep-19 12:33N 40°59' E 028°56'0 0.0
2014-Sep-19 11:33N 40°59' E 028°56'0 0.0
2014-Sep-19 10:31N 40°59' E 028°56'0 0.0
2014-Sep-19 08:18N 40°59' E 028°55'0 0.0
2014-Sep-19 07:22N 40°59' E 028°55'0 0.0
2014-Sep-19 05:31N 40°59' E 028°55'0 0.0
2014-Sep-19 04:22N 40°59' E 028°56'0 0.0
2014-Sep-19 03:25N 40°59' E 028°56'0 0.1
2014-Sep-19 02:33N 40°59' E 028°56'0 0.0
2014-Sep-19 01:33N 40°59' E 028°56'0 0.0
2014-Sep-19 00:33N 40°59' E 028°56'0 0.0
2014-Sep-18 20:33N 40°59' E 028°56'0 0.0
2014-Sep-18 19:33N 40°59' E 028°56'0 0.0
2014-Sep-18 18:33N 40°59' E 028°56'0 0.0
2014-Sep-18 17:32N 40°59' E 028°56'0 0.0
2014-Sep-18 16:29N 40°59' E 028°56'0 0.1
2014-Sep-18 15:31N 40°59' E 028°56'0 0.0
2014-Sep-18 14:08N 40°59' E 028°56'0 0.0
2014-Sep-18 13:32N 40°59' E 028°56'0 0.0
2014-Sep-18 12:30N 40°59' E 028°56'  
2014-Sep-15 22:32N 46°36' E 031°39'8 8.1
2014-Sep-15 21:30N 46°37' E 031°51'7 7.2
2014-Sep-15 20:34N 46°42' E 031°56'7 7.0
2014-Sep-15 19:33N 46°49' E 031°54'8 8.0
2014-Sep-15 18:33N 46°56' E 032°01'3 2.9
2014-Sep-15 17:32N 46°56' E 031°57'0 0.0
2014-Sep-15 16:31N 46°56' E 031°57'0 0.0
2014-Sep-15 15:32N 46°56' E 031°57'0 0.0
2014-Sep-15 14:27N 46°56' E 031°57'0 0.0
2014-Sep-15 13:31N 46°56' E 031°57'0 0.0
2014-Sep-15 12:31N 46°56' E 031°57'0 0.0
2014-Sep-15 11:32N 46°56' E 031°57'0 0.0
2014-Sep-15 10:27N 46°56' E 031°57'0 0.0
2014-Sep-15 09:33N 46°56' E 031°57'0 0.0
2014-Sep-15 08:33N 46°56' E 031°57'0 0.0
2014-Sep-15 07:33N 46°56' E 031°57'0 0.0
2014-Sep-15 06:33N 46°56' E 031°57'0 0.0
2014-Sep-15 05:31N 46°56' E 031°57'0 0.0
2014-Sep-15 04:32N 46°56' E 031°57'0 0.0
2014-Sep-15 03:32N 46°56' E 031°57'0 0.0
2014-Sep-15 02:31N 46°56' E 031°57'0 0.0
2014-Sep-15 01:33N 46°56' E 031°57'0 0.0
2014-Sep-15 00:33N 46°56' E 031°57'0 0.0
2014-Sep-14 23:31N 46°56' E 031°57'0 0.0
2014-Sep-14 22:31N 46°56' E 031°57'0 0.0
2014-Sep-14 21:32N 46°56' E 031°57'0 0.0
2014-Sep-14 20:32N 46°56' E 031°57'0 0.0
2014-Sep-14 19:32N 46°56' E 031°57'0 0.0
2014-Sep-14 18:31N 46°56' E 031°57'0 0.0
2014-Sep-14 17:33N 46°56' E 031°57'0 0.0
2014-Sep-14 16:30N 46°56' E 031°57'0 0.0
2014-Sep-14 15:33N 46°56' E 031°57'0 0.0
2014-Sep-14 14:33N 46°56' E 031°57'0 0.0
2014-Sep-14 13:33N 46°56' E 031°57'0 0.0
2014-Sep-14 12:33N 46°56' E 031°57'0 0.0
2014-Sep-14 11:33N 46°56' E 031°57'0 0.0
2014-Sep-14 10:33N 46°56' E 031°57'0 0.0
2014-Sep-14 09:32N 46°56' E 031°57'0 0.0
2014-Sep-14 08:31N 46°56' E 031°57'0 0.0
2014-Sep-14 07:32N 46°56' E 031°57'0 0.0
2014-Sep-14 06:33N 46°56' E 031°57'0 0.0
2014-Sep-14 05:33N 46°56' E 031°57'0 0.0
2014-Sep-14 04:31N 46°56' E 031°57'0 0.0
2014-Sep-14 03:31N 46°56' E 031°57'0 0.0
2014-Sep-14 02:33N 46°56' E 031°57'0 0.0
2014-Sep-14 01:33N 46°56' E 031°57'0 0.0
2014-Sep-13 21:33N 46°56' E 031°57'0 0.0
2014-Sep-13 20:31N 46°56' E 031°57'0 0.0
2014-Sep-13 19:31N 46°56' E 031°57'0 0.0
2014-Sep-13 18:32N 46°56' E 031°57'0 0.0
2014-Sep-13 17:32N 46°56' E 031°57'0 0.0
2014-Sep-13 16:28N 46°56' E 031°57'0 0.0
2014-Sep-13 15:32N 46°56' E 031°57'0 0.0
2014-Sep-13 14:32N 46°56' E 031°57'0 0.0
2014-Sep-13 13:33N 46°56' E 031°57'0 0.0
2014-Sep-13 12:29N 46°56' E 031°57'0 0.0
2014-Sep-13 11:33N 46°56' E 031°57'0 0.0
2014-Sep-13 10:32N 46°56' E 031°57'0 0.0
2014-Sep-13 09:31N 46°56' E 031°57'0 0.0
2014-Sep-13 08:32N 46°56' E 031°57'0 0.0
2014-Sep-13 07:33N 46°56' E 031°57'0 0.0
2014-Sep-13 06:31N 46°56' E 031°57'0 0.0
2014-Sep-13 05:31N 46°56' E 031°57'0 0.0
2014-Sep-13 04:33N 46°56' E 031°57'0 0.0
2014-Sep-13 03:31N 46°56' E 031°57'0 0.0
2014-Sep-13 02:28N 46°56' E 031°57'0 0.0
2014-Sep-13 01:33N 46°56' E 031°57'0 0.0
2014-Sep-13 00:31N 46°56' E 031°57'0 0.0
2014-Sep-12 23:31N 46°56' E 031°57'0 0.0
2014-Sep-12 22:31N 46°56' E 031°57'0 0.0
2014-Sep-12 21:31N 46°56' E 031°57'0 0.0
2014-Sep-12 20:31N 46°56' E 031°57'0 0.0
2014-Sep-12 19:32N 46°56' E 031°57'0 0.0
2014-Sep-12 18:31N 46°56' E 031°57'0 0.0
2014-Sep-12 17:31N 46°56' E 031°57'0 0.0
2014-Sep-12 16:32N 46°56' E 031°57'0 0.0
2014-Sep-12 15:32N 46°56' E 031°57'0 0.0
2014-Sep-12 14:25N 46°56' E 031°57'0 0.0
2014-Sep-12 13:32N 46°56' E 031°57'0 0.0
2014-Sep-12 12:32N 46°56' E 031°57'0 0.0
2014-Sep-12 11:31N 46°56' E 031°57'1 0.8
2014-Sep-12 10:34N 46°56' E 031°57'4 3.8
2014-Sep-12 09:33N 46°52' E 031°58'8 7.7
2014-Sep-12 08:33N 46°45' E 031°54'7 7.2
2014-Sep-12 07:33N 46°37' E 031°53'  

Dump ship's entire track history